Time;durP1;ratioP1;P1;durP2;ratioP2;P2;SDS_P1;SDS_P2;PMS_P1;PMS_P2;Temp;Humidity;BMP_temperature;BMP_pressure;BME280_temperature;BME280_humidity;BME280_pressure;Samples;Min_cycle;Max_cycle;Signal;HPM_P1;HPM_P2
2022/07/26 00:01:28;;;;;;;1.05;0.57;;;;;;;;;;4478502;28;20038;-59
2022/07/26 00:03:38;;;;;;;0.90;0.52;;;;;;;;;;4457202;28;20043;-59
2022/07/26 00:05:49;;;;;;;1.58;0.70;;;;;;;;;;4475612;28;20034;-59
2022/07/26 00:08:11;;;;;;;1.88;0.70;;;;;;;;;;4460446;28;20809;-59
2022/07/26 00:10:22;;;;;;;1.48;0.60;;;;;;;;;;4476275;28;20042;-59
2022/07/26 00:12:32;;;;;;;1.25;0.70;;;;;;;;;;4476138;28;20038;-59
2022/07/26 00:14:43;;;;;;;2.35;0.70;;;;;;;;;;4476496;28;20042;-59
2022/07/26 00:16:53;;;;;;;1.02;0.45;;;;;;;;;;4476109;28;20307;-59
2022/07/26 00:19:06;;;;;;;1.08;0.60;;;;;;;;;;4465953;28;20087;-59
2022/07/26 00:21:16;;;;;;;1.48;0.52;;;;;;;;;;4476897;28;20769;-59
2022/07/26 00:23:27;;;;;;;0.70;0.45;;;;;;;;;;4476701;28;20026;-59
2022/07/26 00:25:37;;;;;;;0.80;0.50;;;;;;;;;;4476735;28;20349;-59
2022/07/26 00:27:48;;;;;;;1.17;0.50;;;;;;;;;;4476702;28;20899;-59
2022/07/26 00:29:58;;;;;;;1.30;0.77;;;;;;;;;;4476859;28;20613;-60
2022/07/26 00:32:09;;;;;;;2.45;0.60;;;;;;;;;;4476563;28;20486;-59
2022/07/26 00:34:19;;;;;;;2.00;0.60;;;;;;;;;;4476518;28;20045;-59
2022/07/26 00:36:29;;;;;;;1.50;0.60;;;;;;;;;;4475975;28;20471;-59
2022/07/26 00:38:40;;;;;;;1.23;0.40;;;;;;;;;;4475535;28;20039;-59
2022/07/26 00:40:51;;;;;;;0.63;0.50;;;;;;;;;;4475265;28;20030;-59
2022/07/26 00:43:01;;;;;;;1.38;0.60;;;;;;;;;;4478138;28;20632;-59
2022/07/26 00:45:13;;;;;;;0.95;0.50;;;;;;;;;;4476226;28;20391;-59
2022/07/26 00:47:23;;;;;;;0.98;0.50;;;;;;;;;;4477663;28;20031;-59
2022/07/26 00:49:33;;;;;;;1.83;0.63;;;;;;;;;;4466150;28;20031;-59
2022/07/26 00:51:44;;;;;;;0.50;0.40;;;;;;;;;;4475852;28;20153;-59
2022/07/26 00:53:54;;;;;;;1.48;0.60;;;;;;;;;;4476729;28;20075;-59
2022/07/26 00:56:05;;;;;;;0.68;0.43;;;;;;;;;;4459362;28;20575;-58
2022/07/26 00:58:17;;;;;;;0.60;0.30;;;;;;;;;;4477136;28;20282;-59
2022/07/26 01:00:27;;;;;;;0.95;0.40;;;;;;;;;;4477234;28;20038;-58
2022/07/26 01:02:38;;;;;;;1.15;0.57;;;;;;;;;;4475809;28;20500;-59
2022/07/26 01:04:48;;;;;;;0.65;0.40;;;;;;;;;;4464816;28;20097;-59
2022/07/26 01:06:59;;;;;;;0.47;0.45;;;;;;;;;;4475697;28;20038;-59
2022/07/26 01:09:10;;;;;;;1.67;0.50;;;;;;;;;;4474732;28;20428;-59
2022/07/26 01:11:21;;;;;;;0.93;0.55;;;;;;;;;;4475586;28;20110;-59
2022/07/26 01:13:33;;;;;;;0.93;0.60;;;;;;;;;;4465722;28;20042;-59
2022/07/26 01:15:43;;;;;;;0.63;0.50;;;;;;;;;;4476313;28;20030;-59
2022/07/26 01:17:53;;;;;;;0.40;0.40;;;;;;;;;;4477562;28;20026;-59
2022/07/26 01:20:06;;;;;;;0.85;0.50;;;;;;;;;;4474506;28;20295;-58
2022/07/26 01:22:17;;;;;;;1.08;0.60;;;;;;;;;;4476630;28;20035;-58
2022/07/26 01:24:27;;;;;;;1.95;0.68;;;;;;;;;;4475917;28;20033;-58
2022/07/26 01:26:37;;;;;;;0.85;0.40;;;;;;;;;;4476178;28;20030;-58
2022/07/26 01:28:48;;;;;;;0.57;0.40;;;;;;;;;;4477397;28;20034;-59
2022/07/26 01:30:58;;;;;;;0.40;0.40;;;;;;;;;;4460937;28;20030;-58
2022/07/26 01:33:09;;;;;;;1.77;0.60;;;;;;;;;;4476006;28;20812;-58
2022/07/26 01:35:19;;;;;;;1.08;0.57;;;;;;;;;;4474684;28;20493;-59
2022/07/26 01:37:30;;;;;;;1.15;0.55;;;;;;;;;;4475274;28;20082;-58
2022/07/26 01:39:42;;;;;;;0.57;0.50;;;;;;;;;;4477949;28;20035;-58
2022/07/26 01:41:55;;;;;;;1.13;0.60;;;;;;;;;;4475770;28;20637;-59
2022/07/26 01:44:06;;;;;;;1.83;0.70;;;;;;;;;;4476892;28;20555;-58
2022/07/26 01:46:17;;;;;;;0.60;0.60;;;;;;;;;;4462016;28;20039;-58
2022/07/26 01:48:27;;;;;;;1.13;0.50;;;;;;;;;;4476881;28;20491;-59
2022/07/26 01:50:38;;;;;;;0.75;0.60;;;;;;;;;;4460307;28;20035;-59
2022/07/26 01:52:48;;;;;;;0.75;0.50;;;;;;;;;;4475721;28;20027;-59
2022/07/26 01:54:58;;;;;;;1.00;0.50;;;;;;;;;;4474799;28;20058;-59
2022/07/26 01:57:09;;;;;;;0.75;0.60;;;;;;;;;;4464173;28;20038;-57
2022/07/26 01:59:19;;;;;;;0.85;0.63;;;;;;;;;;4476598;28;20922;-59
2022/07/26 02:01:30;;;;;;;1.75;0.80;;;;;;;;;;4475384;28;20607;-58
2022/07/26 02:03:40;;;;;;;1.88;0.50;;;;;;;;;;4475788;28;20043;-58
2022/07/26 02:05:51;;;;;;;1.15;0.50;;;;;;;;;;4473866;28;20050;-59
2022/07/26 02:08:02;;;;;;;1.90;0.60;;;;;;;;;;4448827;28;20039;-59
2022/07/26 02:10:13;;;;;;;0.80;0.60;;;;;;;;;;4456888;28;20027;-58
2022/07/26 02:12:23;;;;;;;0.80;0.60;;;;;;;;;;4465138;28;20078;-58
2022/07/26 02:14:34;;;;;;;1.58;0.80;;;;;;;;;;4465380;28;20558;-58
2022/07/26 02:16:44;;;;;;;1.17;0.60;;;;;;;;;;4475655;28;20026;-58
2022/07/26 02:18:55;;;;;;;0.80;0.57;;;;;;;;;;4459552;28;20638;-59
2022/07/26 02:21:06;;;;;;;0.95;0.60;;;;;;;;;;4465318;28;20078;-58
2022/07/26 02:23:16;;;;;;;1.27;0.75;;;;;;;;;;4459921;28;20090;-59
2022/07/26 02:25:27;;;;;;;1.35;0.70;;;;;;;;;;4474816;28;20566;-58
2022/07/26 02:27:38;;;;;;;0.57;0.50;;;;;;;;;;4475319;28;20630;-58
2022/07/26 02:29:48;;;;;;;1.05;0.68;;;;;;;;;;4475303;28;20385;-58
2022/07/26 02:31:59;;;;;;;1.27;0.57;;;;;;;;;;4474420;28;31315;-59
2022/07/26 02:34:09;;;;;;;1.00;0.68;;;;;;;;;;4475150;28;20046;-59
2022/07/26 02:36:20;;;;;;;0.90;0.60;;;;;;;;;;4477065;28;20094;-58
2022/07/26 02:38:30;;;;;;;0.95;0.70;;;;;;;;;;4477757;28;20050;-58
2022/07/26 02:40:41;;;;;;;1.80;0.65;;;;;;;;;;4479227;28;20038;-59
2022/07/26 02:42:52;;;;;;;1.73;0.80;;;;;;;;;;4478463;28;20090;-58
2022/07/26 02:45:02;;;;;;;1.23;0.80;;;;;;;;;;4478747;28;20637;-59
2022/07/26 02:47:13;;;;;;;0.60;0.60;;;;;;;;;;4477289;28;20041;-58
2022/07/26 02:49:23;;;;;;;1.20;0.70;;;;;;;;;;4477973;28;20471;-58
2022/07/26 02:51:34;;;;;;;1.55;0.70;;;;;;;;;;4466679;28;20039;-59
2022/07/26 02:53:44;;;;;;;1.55;0.60;;;;;;;;;;4467262;28;20034;-58
2022/07/26 02:55:55;;;;;;;1.10;0.63;;;;;;;;;;4461193;28;20051;-58
2022/07/26 02:58:05;;;;;;;1.05;0.68;;;;;;;;;;4477791;28;20027;-58
2022/07/26 03:00:18;;;;;;;1.05;0.70;;;;;;;;;;4477272;28;20043;-58
2022/07/26 03:02:29;;;;;;;0.85;0.60;;;;;;;;;;4476894;28;20534;-59
2022/07/26 03:04:39;;;;;;;1.20;0.70;;;;;;;;;;4479703;28;20034;-58
2022/07/26 03:06:49;;;;;;;1.75;0.82;;;;;;;;;;4477595;28;20094;-59
2022/07/26 03:09:00;;;;;;;1.17;0.77;;;;;;;;;;4478581;28;20487;-58
2022/07/26 03:11:10;;;;;;;0.95;0.70;;;;;;;;;;4477577;28;20030;-58
2022/07/26 03:13:21;;;;;;;1.25;0.82;;;;;;;;;;4478342;28;20043;-58
2022/07/26 03:15:31;;;;;;;1.23;0.60;;;;;;;;;;4477114;28;20026;-56
2022/07/26 03:17:42;;;;;;;1.38;0.75;;;;;;;;;;4460784;28;20039;-58
2022/07/26 03:19:52;;;;;;;0.85;0.73;;;;;;;;;;4476963;28;20042;-59
2022/07/26 03:22:03;;;;;;;1.17;0.70;;;;;;;;;;4477521;28;20546;-59
2022/07/26 03:24:13;;;;;;;1.50;0.70;;;;;;;;;;4479715;28;20110;-59
2022/07/26 03:26:24;;;;;;;2.05;0.80;;;;;;;;;;4478811;28;20070;-59
2022/07/26 03:28:35;;;;;;;1.08;0.60;;;;;;;;;;4477587;28;20027;-58
2022/07/26 03:30:45;;;;;;;1.50;0.80;;;;;;;;;;4478955;28;20504;-58
2022/07/26 03:32:55;;;;;;;0.70;0.63;;;;;;;;;;4451394;28;20506;-58
2022/07/26 03:35:07;;;;;;;1.05;0.75;;;;;;;;;;4479385;28;20135;-59
2022/07/26 03:37:17;;;;;;;0.60;0.60;;;;;;;;;;4462096;28;21010;-59
2022/07/26 03:39:28;;;;;;;1.90;0.90;;;;;;;;;;4450683;28;20049;-58
2022/07/26 03:41:39;;;;;;;1.85;0.80;;;;;;;;;;4460415;28;20157;-58
2022/07/26 03:43:49;;;;;;;1.02;0.60;;;;;;;;;;4478342;28;20065;-59
2022/07/26 03:46:00;;;;;;;1.73;0.60;;;;;;;;;;4478687;28;20041;-60
2022/07/26 03:48:11;;;;;;;1.55;0.75;;;;;;;;;;4476470;28;20043;-59
2022/07/26 03:50:21;;;;;;;0.90;0.60;;;;;;;;;;4479102;28;20625;-58
2022/07/26 03:52:32;;;;;;;1.33;0.90;;;;;;;;;;4463202;28;20043;-59
2022/07/26 03:54:42;;;;;;;1.20;0.80;;;;;;;;;;4479302;28;20034;-59
2022/07/26 03:56:53;;;;;;;1.15;0.70;;;;;;;;;;4478606;28;20162;-58
2022/07/26 03:59:06;;;;;;;1.35;0.70;;;;;;;;;;4478170;28;20097;-59
2022/07/26 04:01:17;;;;;;;2.15;0.70;;;;;;;;;;4477769;28;20046;-58
2022/07/26 04:03:27;;;;;;;1.60;0.70;;;;;;;;;;4478117;28;20034;-59
2022/07/26 04:05:38;;;;;;;1.77;0.82;;;;;;;;;;4477854;28;20508;-59
2022/07/26 04:07:48;;;;;;;1.60;0.90;;;;;;;;;;4477666;28;20042;-59
2022/07/26 04:09:58;;;;;;;1.25;0.70;;;;;;;;;;4476713;28;20844;-59
2022/07/26 04:12:09;;;;;;;1.73;0.75;;;;;;;;;;4477643;28;20034;-60
2022/07/26 04:14:20;;;;;;;1.35;0.90;;;;;;;;;;4478397;28;20042;-58
2022/07/26 04:16:30;;;;;;;1.80;1.10;;;;;;;;;;4477003;28;20171;-58
2022/07/26 04:18:41;;;;;;;2.22;0.85;;;;;;;;;;4479530;28;20042;-58
2022/07/26 04:20:51;;;;;;;1.98;0.82;;;;;;;;;;4477651;28;20058;-59
2022/07/26 04:23:02;;;;;;;1.33;0.77;;;;;;;;;;4478942;28;20488;-57
2022/07/26 04:25:12;;;;;;;1.92;0.90;;;;;;;;;;4479474;28;20054;-58
2022/07/26 04:27:23;;;;;;;1.83;0.80;;;;;;;;;;4460986;28;20138;-58
2022/07/26 04:29:34;;;;;;;1.52;0.80;;;;;;;;;;4477568;28;20121;-59
2022/07/26 04:31:44;;;;;;;1.25;0.70;;;;;;;;;;4477524;28;20391;-59
2022/07/26 04:33:55;;;;;;;2.05;0.80;;;;;;;;;;4479203;28;20545;-59
2022/07/26 04:36:05;;;;;;;2.10;1.05;;;;;;;;;;4477916;28;20557;-59
2022/07/26 04:38:16;;;;;;;1.58;0.90;;;;;;;;;;4478058;28;20030;-58
2022/07/26 04:40:27;;;;;;;2.05;0.90;;;;;;;;;;4476321;28;20046;-58
2022/07/26 04:42:38;;;;;;;1.38;1.15;;;;;;;;;;4477072;28;20026;-59
2022/07/26 04:44:48;;;;;;;1.38;0.88;;;;;;;;;;4458699;28;20567;-61
2022/07/26 04:46:59;;;;;;;2.92;1.00;;;;;;;;;;4476761;28;20119;-59
2022/07/26 04:49:09;;;;;;;1.60;0.93;;;;;;;;;;4460670;28;20110;-58
2022/07/26 04:51:19;;;;;;;1.23;0.90;;;;;;;;;;4475369;28;20041;-59
2022/07/26 04:53:30;;;;;;;2.08;0.90;;;;;;;;;;4458737;28;20099;-58
2022/07/26 04:55:41;;;;;;;2.90;1.00;;;;;;;;;;4476609;28;20034;-58
2022/07/26 04:57:52;;;;;;;1.65;1.05;;;;;;;;;;4476079;28;20022;-58
2022/07/26 05:00:04;;;;;;;1.92;1.00;;;;;;;;;;4476179;28;20046;-59
2022/07/26 05:02:15;;;;;;;1.98;1.00;;;;;;;;;;4461099;28;20031;-59
2022/07/26 05:04:26;;;;;;;2.17;0.90;;;;;;;;;;4477647;28;20518;-59
2022/07/26 05:06:36;;;;;;;1.58;0.95;;;;;;;;;;4476587;28;20035;-59
2022/07/26 05:08:47;;;;;;;2.08;1.08;;;;;;;;;;4459882;28;20407;-59
2022/07/26 05:10:58;;;;;;;1.77;0.80;;;;;;;;;;4466320;28;20222;-60
2022/07/26 05:13:08;;;;;;;1.35;0.90;;;;;;;;;;4475497;28;20148;-59
2022/07/26 05:15:19;;;;;;;1.55;0.90;;;;;;;;;;4460423;28;20034;-59
2022/07/26 05:17:29;;;;;;;1.80;1.00;;;;;;;;;;4477612;28;20050;-59
2022/07/26 05:19:40;;;;;;;1.77;1.00;;;;;;;;;;4477102;28;20046;-58
2022/07/26 05:21:50;;;;;;;2.10;0.90;;;;;;;;;;4466545;28;20038;-59
2022/07/26 05:24:01;;;;;;;1.95;1.08;;;;;;;;;;4478294;28;20023;-59
2022/07/26 05:26:11;;;;;;;2.40;1.00;;;;;;;;;;4463128;28;20102;-59
2022/07/26 05:28:22;;;;;;;1.40;1.08;;;;;;;;;;4478871;28;20891;-62
2022/07/26 05:30:32;;;;;;;2.55;1.10;;;;;;;;;;4475487;28;20387;-62
2022/07/26 05:32:43;;;;;;;2.45;1.05;;;;;;;;;;4458921;28;20109;-62
2022/07/26 05:34:53;;;;;;;2.38;1.15;;;;;;;;;;4476138;28;20125;-60
2022/07/26 05:37:03;;;;;;;2.20;1.10;;;;;;;;;;4478726;28;20038;-59
2022/07/26 05:39:14;;;;;;;2.70;1.20;;;;;;;;;;4476312;28;20065;-59
2022/07/26 05:41:24;;;;;;;1.80;1.10;;;;;;;;;;4476424;28;20139;-59
2022/07/26 05:43:35;;;;;;;2.00;1.02;;;;;;;;;;4477028;28;20062;-60
2022/07/26 05:45:45;;;;;;;2.28;1.30;;;;;;;;;;4476920;28;20035;-59
2022/07/26 05:47:56;;;;;;;2.60;1.30;;;;;;;;;;4460415;28;20040;-59
2022/07/26 05:50:07;;;;;;;1.60;1.05;;;;;;;;;;4475349;28;20035;-59
2022/07/26 05:52:17;;;;;;;1.60;1.00;;;;;;;;;;4458355;28;20161;-59
2022/07/26 05:54:27;;;;;;;2.15;1.20;;;;;;;;;;4466075;28;20407;-59
2022/07/26 05:56:38;;;;;;;2.47;1.10;;;;;;;;;;4476872;28;20487;-59
2022/07/26 05:58:48;;;;;;;2.38;1.30;;;;;;;;;;4476730;28;20523;-59
2022/07/26 06:00:59;;;;;;;1.77;1.20;;;;;;;;;;4465817;28;20384;-60
2022/07/26 06:03:21;;;;;;;2.25;1.25;;;;;;;;;;4476643;28;20118;-59
2022/07/26 06:05:32;;;;;;;3.05;1.35;;;;;;;;;;4475958;28;20065;-59
2022/07/26 06:07:42;;;;;;;1.92;1.30;;;;;;;;;;4474109;28;20141;-61
2022/07/26 06:09:53;;;;;;;2.33;1.50;;;;;;;;;;4477310;28;20043;-59
2022/07/26 06:12:04;;;;;;;2.30;1.40;;;;;;;;;;4478867;28;20101;-59
2022/07/26 06:14:14;;;;;;;2.88;1.60;;;;;;;;;;4479931;28;20133;-59
2022/07/26 06:16:25;;;;;;;1.92;1.70;;;;;;;;;;4462017;28;20399;-59
2022/07/26 06:18:35;;;;;;;2.55;1.80;;;;;;;;;;4480363;28;20506;-59
2022/07/26 06:20:46;;;;;;;2.05;1.50;;;;;;;;;;4461594;28;20717;-59
2022/07/26 06:22:57;;;;;;;1.98;1.45;;;;;;;;;;4479207;28;20600;-59
2022/07/26 06:25:08;;;;;;;2.10;1.27;;;;;;;;;;4480996;28;20121;-59
2022/07/26 06:27:18;;;;;;;2.33;1.33;;;;;;;;;;4480001;28;20576;-59
2022/07/26 06:29:29;;;;;;;1.92;1.30;;;;;;;;;;4478847;28;20065;-59
2022/07/26 06:31:39;;;;;;;2.58;1.45;;;;;;;;;;4478427;28;20456;-59
2022/07/26 06:33:50;;;;;;;3.58;1.40;;;;;;;;;;4477658;28;20101;-59
2022/07/26 06:36:01;;;;;;;2.03;1.30;;;;;;;;;;4479940;28;20102;-59
2022/07/26 06:38:11;;;;;;;2.67;1.27;;;;;;;;;;4461790;28;20034;-59
2022/07/26 06:40:22;;;;;;;1.80;1.30;;;;;;;;;;4479762;28;20042;-59
2022/07/26 06:42:32;;;;;;;1.50;1.33;;;;;;;;;;4479061;28;20027;-59
2022/07/26 06:44:43;;;;;;;1.73;1.10;;;;;;;;;;4479693;28;20034;-59
2022/07/26 06:46:53;;;;;;;1.80;1.10;;;;;;;;;;4478100;28;20373;-59
2022/07/26 06:49:04;;;;;;;2.95;1.20;;;;;;;;;;4480364;28;20039;-59
2022/07/26 06:51:14;;;;;;;3.03;1.10;;;;;;;;;;4479806;28;20037;-59
2022/07/26 06:53:25;;;;;;;2.13;1.25;;;;;;;;;;4460878;28;20532;-59
2022/07/26 06:55:35;;;;;;;1.80;1.00;;;;;;;;;;4478127;28;20031;-59
2022/07/26 06:57:46;;;;;;;2.17;1.10;;;;;;;;;;4479027;28;20096;-59
2022/07/26 06:59:56;;;;;;;2.83;1.25;;;;;;;;;;4468531;28;20035;-61
2022/07/26 07:02:07;;;;;;;1.65;1.20;;;;;;;;;;4477880;28;20023;-59
2022/07/26 07:04:18;;;;;;;1.92;1.10;;;;;;;;;;4468204;28;20085;-59
2022/07/26 07:06:28;;;;;;;3.78;1.35;;;;;;;;;;4479800;28;20121;-59
2022/07/26 07:08:39;;;;;;;1.92;1.33;;;;;;;;;;4479541;28;20137;-59
2022/07/26 07:10:50;;;;;;;1.50;1.20;;;;;;;;;;4478444;28;20035;-59
2022/07/26 07:13:01;;;;;;;2.38;1.33;;;;;;;;;;4479093;28;20769;-60
2022/07/26 07:15:11;;;;;;;2.22;1.38;;;;;;;;;;4479073;28;20049;-59
2022/07/26 07:17:22;;;;;;;1.73;1.00;;;;;;;;;;4479721;28;20290;-59
2022/07/26 07:19:34;;;;;;;1.95;1.15;;;;;;;;;;4479514;28;20053;-59
2022/07/26 07:21:44;;;;;;;2.05;1.35;;;;;;;;;;4461942;28;20043;-59
2022/07/26 07:23:55;;;;;;;1.75;1.10;;;;;;;;;;4459505;28;20039;-59
2022/07/26 07:26:05;;;;;;;1.95;1.20;;;;;;;;;;4467562;28;20415;-59
2022/07/26 07:28:16;;;;;;;1.52;1.13;;;;;;;;;;4477832;28;20046;-59
2022/07/26 07:30:27;;;;;;;2.05;1.10;;;;;;;;;;4460368;28;20030;-60
2022/07/26 07:32:37;;;;;;;1.35;1.23;;;;;;;;;;4478853;28;20124;-59
2022/07/26 07:34:48;;;;;;;2.00;1.30;;;;;;;;;;4478195;28;20149;-60
2022/07/26 07:36:58;;;;;;;1.80;1.13;;;;;;;;;;4480631;28;20027;-59
2022/07/26 07:39:09;;;;;;;1.83;1.10;;;;;;;;;;4480785;28;20074;-59
2022/07/26 07:41:19;;;;;;;2.08;1.40;;;;;;;;;;4478875;28;20042;-59
2022/07/26 07:43:30;;;;;;;1.85;1.10;;;;;;;;;;4478088;28;20042;-59
2022/07/26 07:45:40;;;;;;;1.40;1.20;;;;;;;;;;4478141;28;20058;-59
2022/07/26 07:47:51;;;;;;;2.20;1.30;;;;;;;;;;4479404;28;20037;-59
2022/07/26 07:50:01;;;;;;;2.08;1.10;;;;;;;;;;4476066;28;20039;-59
2022/07/26 07:52:12;;;;;;;2.78;1.25;;;;;;;;;;4478189;28;20118;-59
2022/07/26 07:54:22;;;;;;;2.17;1.27;;;;;;;;;;4478887;28;20082;-59
2022/07/26 07:56:33;;;;;;;2.13;1.40;;;;;;;;;;4478177;28;20050;-59
2022/07/26 07:58:44;;;;;;;2.08;1.33;;;;;;;;;;4478538;28;20027;-58
2022/07/26 08:00:54;;;;;;;2.35;1.40;;;;;;;;;;4462961;28;20030;-58
2022/07/26 08:03:05;;;;;;;2.90;1.33;;;;;;;;;;4468518;28;20039;-59
2022/07/26 08:05:15;;;;;;;2.13;1.40;;;;;;;;;;4451568;28;20599;-59
2022/07/26 08:07:26;;;;;;;2.13;1.30;;;;;;;;;;4477365;28;20066;-59
2022/07/26 08:09:37;;;;;;;2.63;1.58;;;;;;;;;;4478701;28;20046;-60
2022/07/26 08:11:48;;;;;;;2.25;1.40;;;;;;;;;;4478462;28;20571;-59
2022/07/26 08:13:58;;;;;;;2.80;1.40;;;;;;;;;;4477127;28;20352;-59
2022/07/26 08:16:09;;;;;;;1.65;1.52;;;;;;;;;;4477422;28;20139;-59
2022/07/26 08:18:21;;;;;;;3.22;1.63;;;;;;;;;;4477808;28;20488;-59
2022/07/26 08:20:31;;;;;;;4.40;1.95;;;;;;;;;;4477904;28;20117;-59
2022/07/26 08:22:41;;;;;;;2.70;1.80;;;;;;;;;;4478657;28;20046;-59
2022/07/26 08:24:52;;;;;;;2.33;1.63;;;;;;;;;;4477495;28;20518;-59
2022/07/26 08:27:03;;;;;;;2.88;2.30;;;;;;;;;;4479766;28;20046;-59
2022/07/26 08:29:13;;;;;;;4.20;2.60;;;;;;;;;;4477512;28;20034;-59
2022/07/26 08:31:24;;;;;;;3.38;2.90;;;;;;;;;;4479021;28;20908;-59
2022/07/26 08:33:34;;;;;;;4.40;3.30;;;;;;;;;;4476722;28;20104;-59
2022/07/26 08:35:45;;;;;;;3.47;3.17;;;;;;;;;;4459668;28;20039;-59
2022/07/26 08:37:56;;;;;;;4.05;3.13;;;;;;;;;;4476220;28;20034;-59
2022/07/26 08:40:07;;;;;;;3.42;2.80;;;;;;;;;;4474543;28;20596;-59
2022/07/26 08:42:18;;;;;;;4.10;3.67;;;;;;;;;;4465466;28;20108;-59
2022/07/26 08:44:29;;;;;;;3.97;3.30;;;;;;;;;;4478227;28;20644;-59
2022/07/26 08:46:41;;;;;;;4.63;4.00;;;;;;;;;;4478187;28;20053;-59
2022/07/26 08:48:51;;;;;;;5.10;4.00;;;;;;;;;;4477881;28;20038;-59
2022/07/26 08:51:06;;;;;;;4.65;4.25;;;;;;;;;;4477866;28;20071;-59
2022/07/26 08:53:17;;;;;;;6.65;4.35;;;;;;;;;;4478329;28;20038;-59
2022/07/26 08:55:28;;;;;;;5.38;4.60;;;;;;;;;;4462926;28;21044;-59
2022/07/26 08:57:38;;;;;;;5.53;4.43;;;;;;;;;;4461309;28;20541;-59
2022/07/26 09:00:14;;;;;;;5.25;4.75;;;;;;;;;;4477678;28;20350;-59
2022/07/26 09:02:38;;;;;;;5.15;4.65;;;;;;;;;;4476139;28;20039;-59
2022/07/26 09:04:48;;;;;;;5.32;4.30;;;;;;;;;;4474924;28;20042;-60
2022/07/26 09:07:03;;;;;;;4.40;3.90;;;;;;;;;;4476591;28;20049;-59
2022/07/26 09:09:14;;;;;;;5.13;4.63;;;;;;;;;;4477172;28;20042;-60
2022/07/26 09:11:27;;;;;;;4.82;4.32;;;;;;;;;;4466721;28;20132;-59
2022/07/26 09:13:49;;;;;;;5.20;4.70;;;;;;;;;;4476867;28;20586;-60
2022/07/26 09:16:10;;;;;;;5.00;4.50;;;;;;;;;;4477984;28;20089;-59
2022/07/26 09:18:25;;;;;;;5.18;4.60;;;;;;;;;;4475373;28;20074;-59
2022/07/26 09:20:45;;;;;;;5.65;5.10;;;;;;;;;;4475793;28;20045;-59
2022/07/26 09:23:07;;;;;;;5.70;5.10;;;;;;;;;;4476266;28;20114;-59
2022/07/26 09:25:20;;;;;;;6.07;4.95;;;;;;;;;;4475310;28;20120;-60
2022/07/26 09:27:35;;;;;;;6.47;5.70;;;;;;;;;;4476240;28;20046;-58
2022/07/26 09:29:51;;;;;;;6.00;5.40;;;;;;;;;;4471887;28;20121;-58
2022/07/26 09:32:10;;;;;;;5.85;5.15;;;;;;;;;;4457079;28;20043;-60
2022/07/26 09:34:24;;;;;;;6.25;5.30;;;;;;;;;;4478010;28;20619;-58
2022/07/26 09:36:50;;;;;;;5.80;5.30;;;;;;;;;;4477732;28;20035;-58
2022/07/26 09:39:03;;;;;;;5.80;5.20;;;;;;;;;;4460232;28;20039;-58
2022/07/26 09:41:27;;;;;;;6.10;5.50;;;;;;;;;;4458035;28;20092;-58
2022/07/26 09:43:37;;;;;;;6.47;5.88;;;;;;;;;;4475528;28;20866;-58
2022/07/26 09:46:01;;;;;;;6.32;5.72;;;;;;;;;;4477433;28;20098;-58
2022/07/26 09:48:12;;;;;;;6.57;5.80;;;;;;;;;;4479945;28;20644;-58
2022/07/26 09:50:25;;;;;;;6.80;5.90;;;;;;;;;;4480416;28;20596;-59
2022/07/26 09:52:35;;;;;;;5.93;5.32;;;;;;;;;;4475435;28;20138;-58
2022/07/26 09:54:48;;;;;;;5.43;4.93;;;;;;;;;;4479073;28;20046;-59
2022/07/26 09:56:59;;;;;;;6.95;4.95;;;;;;;;;;4465661;28;20042;-58
2022/07/26 09:59:09;;;;;;;5.85;5.30;;;;;;;;;;4462230;28;20039;-58
2022/07/26 10:01:20;;;;;;;5.53;5.03;;;;;;;;;;4479421;28;20037;-58
2022/07/26 10:03:31;;;;;;;5.30;4.80;;;;;;;;;;4467104;28;20057;-58
2022/07/26 10:05:42;;;;;;;5.72;4.60;;;;;;;;;;4480050;28;20045;-58
2022/07/26 10:07:54;;;;;;;5.38;4.88;;;;;;;;;;4465235;28;20087;-58
2022/07/26 10:10:12;;;;;;;5.93;4.80;;;;;;;;;;4479601;28;20065;-59
2022/07/26 10:12:27;;;;;;;6.25;5.45;;;;;;;;;;4469120;28;20897;-58
2022/07/26 10:14:39;;;;;;;6.20;5.43;;;;;;;;;;4479418;28;20113;-58
2022/07/26 10:16:49;;;;;;;5.63;5.13;;;;;;;;;;4462297;28;20042;-59
2022/07/26 10:19:03;;;;;;;6.18;5.57;;;;;;;;;;4462442;28;20027;-58
2022/07/26 10:21:24;;;;;;;6.38;5.78;;;;;;;;;;4479895;28;20034;-58
2022/07/26 10:23:40;;;;;;;3.20;2.85;;;;;;;;;;4479797;28;20039;-59
2022/07/26 10:25:50;;;;;;;2.00;1.25;;;;;;;;;;4480369;28;20158;-58
2022/07/26 10:28:01;;;;;;;1.10;0.80;;;;;;;;;;4478817;28;20061;-58
2022/07/26 10:30:17;;;;;;;1.40;0.80;;;;;;;;;;4479563;28;20093;-58
2022/07/26 10:32:28;;;;;;;0.85;0.70;;;;;;;;;;4481827;28;20042;-58
2022/07/26 10:34:39;;;;;;;0.77;0.52;;;;;;;;;;4463580;28;20126;-58
2022/07/26 10:36:57;;;;;;;0.60;0.60;;;;;;;;;;4477816;28;20782;-56
2022/07/26 10:39:13;;;;;;;1.17;0.80;;;;;;;;;;4478286;28;20031;-58
2022/07/26 10:41:50;;;;;;;0.60;0.60;;;;;;;;;;4477524;28;20144;-58
2022/07/26 10:44:25;;;;;;;0.80;0.55;;;;;;;;;;4476505;28;20886;-59
2022/07/26 10:46:54;;;;;;;1.58;0.60;;;;;;;;;;4479997;28;20573;-58
2022/07/26 10:49:06;;;;;;;1.23;0.60;;;;;;;;;;4480926;28;20117;-58
2022/07/26 10:51:27;;;;;;;1.00;0.60;;;;;;;;;;4478319;28;20038;-58
2022/07/26 10:53:37;;;;;;;0.65;0.52;;;;;;;;;;4479232;28;20053;-58
2022/07/26 10:55:53;;;;;;;0.70;0.70;;;;;;;;;;4479950;28;20046;-58
2022/07/26 10:58:04;;;;;;;0.88;0.60;;;;;;;;;;4477469;28;20156;-58
2022/07/26 11:00:20;;;;;;;1.33;0.50;;;;;;;;;;4478949;28;20190;-58
2022/07/26 11:02:31;;;;;;;0.68;0.60;;;;;;;;;;4473173;28;20039;-58
2022/07/26 11:04:42;;;;;;;0.52;0.50;;;;;;;;;;4477427;28;20034;-58
2022/07/26 11:06:59;;;;;;;0.60;0.60;;;;;;;;;;4478285;28;20031;-59
2022/07/26 11:09:10;;;;;;;1.33;0.70;;;;;;;;;;4477088;28;21022;-59
2022/07/26 11:11:28;;;;;;;0.70;0.70;;;;;;;;;;4478243;28;20042;-59
2022/07/26 11:13:39;;;;;;;0.80;0.50;;;;;;;;;;4477245;28;20055;-58
2022/07/26 11:15:57;;;;;;;0.77;0.63;;;;;;;;;;4468405;28;20043;-58
2022/07/26 11:18:13;;;;;;;0.70;0.60;;;;;;;;;;4478015;28;20042;-59
2022/07/26 11:20:27;;;;;;;1.23;0.70;;;;;;;;;;4479891;28;21030;-58
2022/07/26 11:22:38;;;;;;;1.15;0.70;;;;;;;;;;4479554;28;20108;-58
2022/07/26 11:24:48;;;;;;;0.90;0.50;;;;;;;;;;4479281;28;20540;-58
2022/07/26 11:27:03;;;;;;;1.02;0.60;;;;;;;;;;4463635;28;20045;-58
2022/07/26 11:29:13;;;;;;;0.57;0.57;;;;;;;;;;4462457;28;20651;-58
2022/07/26 11:31:36;;;;;;;0.88;0.85;;;;;;;;;;4478104;28;20061;-58
2022/07/26 11:33:49;;;;;;;0.93;0.60;;;;;;;;;;4467991;28;20882;-58
2022/07/26 11:36:00;;;;;;;0.90;0.68;;;;;;;;;;4478089;28;20603;-58
2022/07/26 11:38:10;;;;;;;0.88;0.57;;;;;;;;;;4479221;28;20026;-58
2022/07/26 11:40:43;;;;;;;1.00;0.60;;;;;;;;;;4480079;28;20149;-58
2022/07/26 11:42:54;;;;;;;1.10;0.52;;;;;;;;;;4476204;28;20130;-58
2022/07/26 11:45:08;;;;;;;1.17;0.70;;;;;;;;;;4479342;28;20661;-58
2022/07/26 11:47:21;;;;;;;1.33;0.60;;;;;;;;;;4474470;28;20069;-58
2022/07/26 11:49:32;;;;;;;1.35;0.75;;;;;;;;;;4478359;28;20117;-58
2022/07/26 11:51:51;;;;;;;0.70;0.60;;;;;;;;;;4477003;28;20118;-61
2022/07/26 11:54:02;;;;;;;0.63;0.60;;;;;;;;;;4467488;28;20061;-63
2022/07/26 11:56:20;;;;;;;0.82;0.70;;;;;;;;;;4479286;28;20514;-62
2022/07/26 11:58:31;;;;;;;1.58;0.90;;;;;;;;;;4444286;28;20027;-61
2022/07/26 12:00:41;;;;;;;1.27;0.80;;;;;;;;;;4477502;28;20039;-62
2022/07/26 12:02:52;;;;;;;0.80;0.80;;;;;;;;;;4477635;28;20104;-66
2022/07/26 12:05:11;;;;;;;1.23;0.80;;;;;;;;;;4478131;28;20038;-65
2022/07/26 12:07:22;;;;;;;1.00;0.80;;;;;;;;;;4478191;28;20135;-62
2022/07/26 12:09:45;;;;;;;1.13;0.70;;;;;;;;;;4459441;28;20054;-62
2022/07/26 12:11:56;;;;;;;1.35;0.80;;;;;;;;;;4479382;28;20848;-62
2022/07/26 12:14:06;;;;;;;1.02;0.93;;;;;;;;;;4479593;28;20100;-63
2022/07/26 12:16:52;;;;;;;1.35;1.00;;;;;;;;;;4477371;28;20121;-62
2022/07/26 12:19:27;;;;;;;1.33;1.00;;;;;;;;;;4397602;29;20687;-61
2022/07/26 12:21:45;;;;;;;1.17;1.00;;;;;;;;;;4465696;28;20614;-62
2022/07/26 12:23:55;;;;;;;1.33;0.90;;;;;;;;;;4476930;28;20042;-62
2022/07/26 12:26:25;;;;;;;1.23;0.90;;;;;;;;;;4458311;28;20047;-64
2022/07/26 12:28:39;;;;;;;1.48;0.60;;;;;;;;;;4478390;28;21036;-65
2022/07/26 12:30:49;;;;;;;0.80;0.70;;;;;;;;;;4478308;28;20034;-64
2022/07/26 12:33:00;;;;;;;0.70;0.47;;;;;;;;;;4478686;28;20113;-63
2022/07/26 12:35:16;;;;;;;0.68;0.50;;;;;;;;;;4462794;28;20034;-64
2022/07/26 12:37:33;;;;;;;0.77;0.60;;;;;;;;;;4478932;28;20034;-59
2022/07/26 12:39:59;;;;;;;1.65;0.60;;;;;;;;;;4477438;28;20035;-58
2022/07/26 12:42:20;;;;;;;1.05;0.63;;;;;;;;;;4475564;28;20034;-59
2022/07/26 12:44:31;;;;;;;0.50;0.50;;;;;;;;;;4477654;28;20756;-58
2022/07/26 12:46:45;;;;;;;0.98;0.68;;;;;;;;;;4479423;28;20034;-59
2022/07/26 12:48:55;;;;;;;0.68;0.60;;;;;;;;;;4466712;28;20039;-58
2022/07/26 12:51:06;;;;;;;1.27;0.55;;;;;;;;;;4477397;28;20030;-58
2022/07/26 12:53:16;;;;;;;0.60;0.50;;;;;;;;;;4478125;28;20045;-59
2022/07/26 12:55:27;;;;;;;0.90;0.50;;;;;;;;;;4477102;28;20523;-60
2022/07/26 12:57:38;;;;;;;0.73;0.60;;;;;;;;;;4477931;28;20035;-59
2022/07/26 12:59:48;;;;;;;0.60;0.50;;;;;;;;;;4478557;28;20073;-60
2022/07/26 13:01:59;;;;;;;0.65;0.57;;;;;;;;;;4478050;28;20097;-58
2022/07/26 13:04:09;;;;;;;1.10;0.60;;;;;;;;;;4465858;28;20035;-59
2022/07/26 13:06:20;;;;;;;0.70;0.70;;;;;;;;;;4477821;28;20081;-58
2022/07/26 13:08:31;;;;;;;1.75;0.70;;;;;;;;;;4477966;28;21053;-58
2022/07/26 13:10:41;;;;;;;1.05;0.77;;;;;;;;;;4459318;28;20102;-56
2022/07/26 13:12:52;;;;;;;1.55;0.80;;;;;;;;;;4476088;28;20039;-59